Time;durP1;ratioP1;P1;durP2;ratioP2;P2;SDS_P1;SDS_P2;PMS_P1;PMS_P2;Temp;Humidity;BMP_temperature;BMP_pressure;BME280_temperature;BME280_humidity;BME280_pressure;Samples;Min_cycle;Max_cycle;Signal;HPM_P1;HPM_P2
2022/10/19 00:02:11;;;;;;;5.05;4.75;;;;;;;7.44;100.00;102312.09;6058330;23;21312;-71
2022/10/19 00:04:37;;;;;;;4.82;4.43;;;;;;;5.26;100.00;101975.56;6080612;23;20539;-71
2022/10/19 00:07:04;;;;;;;4.13;3.92;;;;;;;7.37;100.00;102323.47;6054419;23;20033;-69
2022/10/19 00:09:31;;;;;;;4.50;4.30;;;;;;;7.18;100.00;102292.38;6051728;23;20014;-73
2022/10/19 00:12:00;;;;;;;4.50;4.20;;;;;;;3.37;100.00;101671.31;6065823;23;20117;-70
2022/10/19 00:14:27;;;;;;;4.63;4.30;;;;;;;5.12;100.00;101952.25;6081882;23;20021;-72
2022/10/19 00:16:54;;;;;;;9.07;4.80;;;;;;;6.87;100.00;102246.63;6026490;23;20038;-72
2022/10/19 00:19:24;;;;;;;5.13;4.82;;;;;;;7.24;100.00;102304.50;6060395;23;20025;-72
2022/10/19 00:21:54;;;;;;;5.13;4.85;;;;;;;6.99;100.00;102260.41;6033269;23;20013;-73
2022/10/19 00:24:20;;;;;;;7.82;5.82;;;;;;;7.16;100.00;102291.53;6051046;23;20011;-72
2022/10/19 00:26:47;;;;;;;4.30;4.10;;;;;;;7.15;100.00;102288.94;6015261;23;20073;-72
2022/10/19 00:29:14;;;;;;;4.75;4.45;;;;;;;5.88;100.00;102079.97;6084183;23;20062;-72
2022/10/19 00:31:41;;;;;;;4.47;4.25;;;;;;;5.75;100.00;102066.19;6085849;23;20018;-71
2022/10/19 00:34:08;;;;;;;4.47;4.28;;;;;;;6.36;100.00;102171.56;6072652;23;20022;-71
2022/10/19 00:36:38;;;;;;;4.65;4.43;;;;;;;5.72;100.00;102058.41;6055687;23;20022;-73
2022/10/19 00:39:10;;;;;;;4.50;4.30;;;;;;;7.01;100.00;102283.03;6052739;23;20022;-74
2022/10/19 00:41:37;;;;;;;4.20;4.00;;;;;;;4.44;100.00;101889.53;6075968;23;20026;-72
2022/10/19 00:44:11;;;;;;;4.78;4.47;;;;;;;2.74;100.00;101586.94;6080235;23;20038;-73
2022/10/19 00:46:40;;;;;;;5.38;5.07;;;;;;;6.92;100.00;102289.22;6089188;23;20045;-73
2022/10/19 00:49:10;;;;;;;4.28;4.07;;;;;;;6.90;100.00;102288.38;6063634;23;20129;-71
2022/10/19 00:51:44;;;;;;;4.70;4.50;;;;;;;6.02;100.00;102156.28;6057877;23;20025;-71
2022/10/19 00:54:11;;;;;;;5.10;4.80;;;;;;;6.22;100.00;102213.44;6042777;23;20105;-72
2022/10/19 00:56:40;;;;;;;5.28;4.95;;;;;;;6.80;100.00;102303.25;6032293;23;20354;-74
2022/10/19 00:59:08;;;;;;;4.47;4.22;;;;;;;6.53;100.00;102253.09;6067655;23;20748;-73
2022/10/19 01:01:35;;;;;;;4.13;3.92;;;;;;;6.82;100.00;102300.66;6079195;23;20542;-72
2022/10/19 01:04:03;;;;;;;4.38;4.10;;;;;;;6.78;100.00;102305.03;6080965;23;20014;-73
2022/10/19 01:06:30;;;;;;;4.20;4.00;;;;;;;6.40;100.00;102235.84;6079153;23;20032;-71
2022/10/19 01:08:56;;;;;;;4.72;4.43;;;;;;;6.76;100.00;102298.97;6079282;23;20052;-72
2022/10/19 01:11:40;;;;;;;4.60;4.30;;;;;;;6.72;100.00;102294.66;6081852;23;20107;-71
2022/10/19 01:14:20;;;;;;;4.53;4.22;;;;;;;6.35;100.00;102241.13;6080210;23;21505;-72
2022/10/19 01:17:40;;;;;;;4.75;4.45;;;;;;;6.72;100.00;102287.69;6085041;23;20081;-74
2022/10/19 01:20:16;;;;;;;4.45;4.25;;;;;;;6.68;100.00;102290.34;5945485;24;20121;-72
2022/10/19 01:23:04;;;;;;;3.92;3.72;;;;;;;6.63;100.00;102285.16;6078638;23;20028;-73
2022/10/19 01:25:33;;;;;;;4.30;4.10;;;;;;;6.61;100.00;102286.91;6075075;23;20034;-70
2022/10/19 01:28:23;;;;;;;4.68;4.30;;;;;;;6.06;100.00;102193.59;6062371;23;20034;-71
2022/10/19 01:30:59;;;;;;;3.90;3.70;;;;;;;6.19;100.00;102236.91;6085540;23;20552;-72
2022/10/19 01:33:44;;;;;;;3.92;3.72;;;;;;;6.52;100.00;102274.84;6074324;23;20033;-72
2022/10/19 01:36:30;;;;;;;4.60;4.30;;;;;;;6.47;100.00;102275.75;6007076;23;20014;-73
2022/10/19 01:39:08;;;;;;;4.20;4.00;;;;;;;6.08;100.00;102215.31;6081254;23;20036;-72
2022/10/19 01:41:51;;;;;;;4.50;4.15;;;;;;;6.42;100.00;102273.22;6049099;23;20038;-72
2022/10/19 01:44:41;;;;;;;4.38;4.07;;;;;;;6.37;100.00;102267.16;6054752;23;20588;-71
2022/10/19 01:47:15;;;;;;;5.68;3.85;;;;;;;5.76;100.00;102175.59;6086877;23;20040;-74
2022/10/19 01:49:49;;;;;;;4.47;4.18;;;;;;;5.32;100.00;102137.72;6094959;23;20075;-71
2022/10/19 01:52:17;;;;;;;;;;;;;;;6.10;100.00;102263.06;6089462;23;21928;-72
2022/10/19 01:54:49;;;;;;;4.43;4.22;;;;;;;6.04;100.00;102263.13;6071767;23;19925;-72
2022/10/19 01:57:22;;;;;;;4.10;3.90;;;;;;;5.67;100.00;102199.09;6088191;23;20024;-72
2022/10/19 01:59:50;;;;;;;3.63;3.47;;;;;;;5.74;100.00;102223.38;6062349;23;20067;-71
2022/10/19 02:02:18;;;;;;;4.20;4.00;;;;;;;5.31;100.00;102145.53;6028554;23;20032;-74
2022/10/19 02:04:48;;;;;;;3.80;3.65;;;;;;;5.68;100.00;102205.19;6074020;23;20210;-71
2022/10/19 02:07:15;;;;;;;4.00;3.80;;;;;;;5.65;100.00;102197.38;6083572;23;20029;-73
2022/10/19 02:09:41;;;;;;;4.15;3.85;;;;;;;6.01;100.00;102257.91;6049059;23;20027;-73
2022/10/19 02:12:09;;;;;;;4.55;4.35;;;;;;;6.02;100.00;102254.47;6081216;23;20029;-74
2022/10/19 02:14:42;;;;;;;5.38;4.07;;;;;;;5.98;100.00;102258.81;6080715;23;20035;-72
2022/10/19 02:17:12;;;;;;;4.45;4.05;;;;;;;5.94;100.00;102255.34;6081598;23;20032;-73
2022/10/19 02:19:40;;;;;;;4.47;4.18;;;;;;;5.92;100.00;102240.59;6082876;23;20032;-72
2022/10/19 02:22:07;;;;;;;4.30;4.10;;;;;;;5.59;100.00;102201.78;6054692;23;20030;-70
2022/10/19 02:24:34;;;;;;;3.95;3.75;;;;;;;5.46;100.00;102170.63;6079351;23;20042;-72
2022/10/19 02:27:04;;;;;;;3.70;3.60;;;;;;;5.83;100.00;102245.88;6041461;23;20030;-72
2022/10/19 02:29:32;;;;;;;3.90;3.70;;;;;;;4.48;100.00;102014.28;6085707;23;20014;-74
2022/10/19 02:31:59;;;;;;;3.85;3.65;;;;;;;5.30;100.00;102165.50;6077709;23;20026;-72
2022/10/19 02:34:27;;;;;;;4.90;4.00;;;;;;;5.23;100.00;102161.22;6030904;23;20043;-72
2022/10/19 02:36:54;;;;;;;3.75;3.58;;;;;;;5.55;100.00;102207.88;6082361;23;20039;-73
2022/10/19 02:39:21;;;;;;;4.18;3.88;;;;;;;5.30;100.00;102156.84;6061312;23;20025;-71
2022/10/19 02:42:04;;;;;;;4.45;4.20;;;;;;;5.35;100.00;102175.88;6086063;23;20459;-73
2022/10/19 02:44:46;;;;;;;5.22;4.03;;;;;;;5.69;100.00;102225.13;6078725;23;20083;-72
2022/10/19 02:47:17;;;;;;;3.80;3.60;;;;;;;5.65;100.00;102226.88;6052844;23;20829;-71
2022/10/19 02:49:46;;;;;;;4.13;3.92;;;;;;;5.42;100.00;102190.59;6052834;23;20346;-73
2022/10/19 02:52:13;;;;;;;3.85;3.72;;;;;;;5.60;100.00;102213.03;6053780;23;20030;-71
2022/10/19 02:54:41;;;;;;;4.40;4.20;;;;;;;5.60;100.00;102211.31;6032061;23;20029;-71
2022/10/19 02:57:23;;;;;;;4.15;3.95;;;;;;;5.58;100.00;102213.03;6077150;23;20039;-74
2022/10/19 02:59:51;;;;;;;4.13;3.92;;;;;;;5.57;100.00;102218.25;6050835;23;20085;-72
2022/10/19 03:02:19;;;;;;;4.40;4.10;;;;;;;5.13;100.00;102142.22;6082228;23;20029;-71
2022/10/19 03:04:46;;;;;;;4.30;4.05;;;;;;;4.87;100.00;102102.47;6044399;23;20694;-70
2022/10/19 03:07:19;;;;;;;4.15;3.95;;;;;;;5.50;100.00;102209.63;6079388;23;20623;-70
2022/10/19 03:09:46;;;;;;;4.13;3.92;;;;;;;5.26;100.00;102171.63;6079241;23;20033;-71
2022/10/19 03:12:13;;;;;;;4.22;4.03;;;;;;;5.16;100.00;102165.59;6059769;23;20147;-72
2022/10/19 03:14:40;;;;;;;4.00;3.80;;;;;;;5.22;100.00;102176.84;6071057;23;20025;-72
2022/10/19 03:17:06;;;;;;;3.97;3.67;;;;;;;4.34;100.00;102026.47;6069690;23;20030;-70
2022/10/19 03:19:34;;;;;;;6.28;4.22;;;;;;;5.35;100.00;102201.91;6050037;23;20010;-74
2022/10/19 03:22:01;;;;;;;4.35;4.05;;;;;;;5.34;100.00;102200.19;6030865;23;20109;-73
2022/10/19 03:24:29;;;;;;;3.90;3.70;;;;;;;5.31;100.00;102202.81;6074210;23;20082;-73
2022/10/19 03:26:56;;;;;;;4.10;3.90;;;;;;;4.84;100.00;102134.56;6041266;23;20039;-72
2022/10/19 03:29:25;;;;;;;4.30;4.00;;;;;;;5.26;100.00;102218.47;6084648;23;20079;-73
2022/10/19 03:31:51;;;;;;;4.20;4.00;;;;;;;5.16;100.00;102183.81;6076697;23;20037;-72
2022/10/19 03:34:20;;;;;;;4.47;4.15;;;;;;;5.18;100.00;102192.47;6045560;23;20010;-73
2022/10/19 03:36:46;;;;;;;3.90;3.70;;;;;;;4.23;100.00;102039.53;6074594;23;20018;-71
2022/10/19 03:39:14;;;;;;;4.43;4.22;;;;;;;4.60;100.00;102130.34;6044873;23;20015;-73
2022/10/19 03:41:41;;;;;;;4.00;3.80;;;;;;;5.19;100.00;102208.94;6075282;23;20014;-71
2022/10/19 03:44:09;;;;;;;4.10;3.90;;;;;;;4.88;100.00;102167.47;6049114;23;20146;-71
2022/10/19 03:46:37;;;;;;;4.45;4.15;;;;;;;4.88;100.00;102167.47;6080534;23;20018;-73
2022/10/19 03:49:04;;;;;;;4.30;4.10;;;;;;;5.15;100.00;102210.72;6042703;23;20091;-68
2022/10/19 03:51:32;;;;;;;4.00;3.80;;;;;;;4.52;100.00;102113.91;6032726;23;20080;-74
2022/10/19 03:54:03;;;;;;;4.03;3.83;;;;;;;5.13;100.00;102209.88;6038539;23;20027;-72
2022/10/19 03:56:30;;;;;;;4.38;4.03;;;;;;;4.54;100.00;102123.44;6055284;23;20033;-69
2022/10/19 03:58:59;;;;;;;3.70;3.55;;;;;;;5.10;100.00;102220.28;6054147;23;20483;-71
2022/10/19 04:01:37;;;;;;;3.67;3.47;;;;;;;5.10;100.00;102212.47;6021548;23;20089;-71
2022/10/19 04:04:09;;;;;;;4.38;4.15;;;;;;;5.09;100.00;102212.47;6053143;23;20026;-71
2022/10/19 04:06:38;;;;;;;3.50;3.40;;;;;;;5.04;100.00;102209.06;6005942;23;20030;-73
2022/10/19 04:09:07;;;;;;;3.40;3.30;;;;;;;4.99;100.00;102209.03;6056724;23;20026;-71
2022/10/19 04:11:34;;;;;;;4.18;3.97;;;;;;;4.98;100.00;102215.13;6032242;23;20491;-71
2022/10/19 04:14:01;;;;;;;4.20;4.00;;;;;;;4.56;100.00;102150.28;6052987;23;20045;-71
2022/10/19 04:16:29;;;;;;;3.65;3.45;;;;;;;4.84;100.00;102207.38;6005566;23;20035;-73
2022/10/19 04:18:59;;;;;;;3.80;3.60;;;;;;;4.94;100.00;102226.44;6036504;23;20404;-74
2022/10/19 04:21:36;;;;;;;3.80;3.60;;;;;;;5.05;100.00;102198.63;6027472;23;20030;-72
2022/10/19 04:24:05;;;;;;;4.55;4.25;;;;;;;5.31;100.00;102218.44;6055366;23;21562;-73
2022/10/19 04:26:33;;;;;;;4.22;4.03;;;;;;;5.33;100.00;102211.47;6059371;23;20027;-71
2022/10/19 04:29:00;;;;;;;3.65;3.50;;;;;;;5.30;100.00;102211.50;6039915;23;20084;-74
2022/10/19 04:31:27;;;;;;;4.53;4.32;;;;;;;4.98;100.00;102170.91;6059408;23;20026;-71
2022/10/19 04:33:54;;;;;;;3.65;3.47;;;;;;;5.14;100.00;102198.56;6004333;23;20028;-71
2022/10/19 04:36:20;;;;;;;4.20;4.00;;;;;;;5.15;100.00;102186.41;6061669;23;20022;-73
2022/10/19 04:38:47;;;;;;;4.50;4.22;;;;;;;5.29;100.00;102205.44;6017517;23;20015;-72
2022/10/19 04:41:18;;;;;;;3.88;3.67;;;;;;;5.23;100.00;102205.44;6062689;23;20026;-74
2022/10/19 04:43:45;;;;;;;3.88;3.67;;;;;;;3.97;100.00;102000.69;6032584;23;20046;-74
2022/10/19 04:46:14;;;;;;;3.90;3.70;;;;;;;5.07;100.00;102217.72;6042180;23;20026;-74
2022/10/19 04:48:42;;;;;;;4.13;3.88;;;;;;;4.58;100.00;102126.88;6003715;23;20079;-73
2022/10/19 04:51:09;;;;;;;3.95;3.75;;;;;;;4.69;100.00;102132.91;6060784;23;20030;-72
2022/10/19 04:53:38;;;;;;;3.90;3.70;;;;;;;5.17;100.00;102200.28;6032082;23;20030;-74
2022/10/19 04:56:11;;;;;;;4.18;3.85;;;;;;;5.26;100.00;102182.03;6062995;23;20027;-72
2022/10/19 04:58:38;;;;;;;4.53;4.05;;;;;;;5.33;100.00;102185.44;6060816;23;20507;-72
2022/10/19 05:01:20;;;;;;;4.65;4.38;;;;;;;5.41;100.00;102191.47;6060979;23;20420;-74
2022/10/19 05:03:47;;;;;;;3.97;3.78;;;;;;;5.44;100.00;102183.66;6030603;23;20019;-71
2022/10/19 05:06:14;;;;;;;4.30;4.10;;;;;;;5.38;100.00;102188.91;6065213;23;20116;-72
2022/10/19 05:08:41;;;;;;;3.80;3.60;;;;;;;4.88;100.00;102120.66;6054026;23;20073;-72
2022/10/19 05:11:13;;;;;;;4.25;3.97;;;;;;;4.57;100.00;102081.81;6064060;23;20030;-70
2022/10/19 05:13:40;;;;;;;4.25;3.90;;;;;;;4.86;100.00;102137.16;6059204;23;20025;-71
2022/10/19 05:16:10;;;;;;;4.07;3.88;;;;;;;5.18;100.00;102187.28;6064254;23;20097;-71
2022/10/19 05:18:37;;;;;;;4.32;4.13;;;;;;;5.18;100.00;102191.63;6062151;23;20023;-71
2022/10/19 05:21:08;;;;;;;3.90;3.67;;;;;;;5.14;100.00;102180.34;6058822;23;20010;-71
2022/10/19 05:23:34;;;;;;;4.43;3.75;;;;;;;4.67;100.00;102116.44;6039542;23;20954;-74
2022/10/19 05:26:09;;;;;;;4.32;3.92;;;;;;;4.50;100.00;102092.25;6062253;23;20034;-70
2022/10/19 05:28:36;;;;;;;4.43;4.15;;;;;;;4.94;100.00;102177.00;6032453;23;20044;-71
2022/10/19 05:31:11;;;;;;;4.10;3.90;;;;;;;3.88;100.00;102050.91;6028254;23;20097;-72
2022/10/19 05:33:39;;;;;;;4.00;3.80;;;;;;;4.49;100.00;102111.31;6036876;23;20680;-74
2022/10/19 05:36:13;;;;;;;3.92;3.72;;;;;;;4.81;100.00;102173.56;6056116;23;20092;-71
2022/10/19 05:38:44;;;;;;;3.83;3.63;;;;;;;4.59;100.00;102150.28;6055284;23;20530;-73
2022/10/19 05:41:12;;;;;;;4.75;4.43;;;;;;;4.29;100.00;102101.00;6061475;23;20166;-73
2022/10/19 05:43:39;;;;;;;3.65;3.50;;;;;;;4.71;100.00;102170.19;6059233;23;20037;-74
2022/10/19 05:46:09;;;;;;;3.92;3.72;;;;;;;4.72;100.00;102166.69;6061111;23;20031;-72
2022/10/19 05:48:36;;;;;;;4.60;4.30;;;;;;;4.47;100.00;102126.94;6059183;23;20021;-73
2022/10/19 05:51:04;;;;;;;12.20;4.03;;;;;;;4.24;100.00;102068.97;6031364;23;20084;-74
2022/10/19 05:53:31;;;;;;;3.55;3.45;;;;;;;4.88;100.00;102169.22;6081525;23;20018;-73
2022/10/19 05:55:58;;;;;;;3.72;3.53;;;;;;;4.59;100.00;102123.41;6065487;23;20427;-69
2022/10/19 05:58:25;;;;;;;4.70;4.30;;;;;;;4.76;100.00;102145.00;6050364;23;20034;-72
2022/10/19 06:00:55;;;;;;;4.13;3.92;;;;;;;4.88;100.00;102166.63;6053911;23;20072;-72
2022/10/19 06:03:23;;;;;;;4.03;3.83;;;;;;;4.82;100.00;102164.91;6060380;23;20034;-73
2022/10/19 06:05:50;;;;;;;3.88;3.67;;;;;;;4.71;100.00;102151.09;6054167;23;20575;-73
2022/10/19 06:08:17;;;;;;;3.38;3.28;;;;;;;4.74;100.00;102164.09;6067587;23;20034;-71
2022/10/19 06:10:45;;;;;;;4.18;3.78;;;;;;;4.36;100.00;102110.50;6090599;23;20022;-70
2022/10/19 06:13:11;;;;;;;3.47;3.38;;;;;;;4.53;100.00;102139.03;6088076;23;20046;-71
2022/10/19 06:15:39;;;;;;;4.25;3.67;;;;;;;4.68;100.00;102161.53;6085137;23;20041;-72
2022/10/19 06:18:06;;;;;;;3.63;3.50;;;;;;;4.43;100.00;102130.41;6087342;23;20052;-72
2022/10/19 06:20:35;;;;;;;4.40;4.00;;;;;;;4.43;100.00;102117.44;6070545;23;20030;-72
2022/10/19 06:23:01;;;;;;;3.90;3.70;;;;;;;4.53;100.00;102139.91;6076494;23;20018;-75
2022/10/19 06:25:29;;;;;;;3.70;3.55;;;;;;;4.62;100.00;102153.75;6082993;23;20030;-73
2022/10/19 06:27:56;;;;;;;3.92;3.72;;;;;;;4.50;100.00;102139.91;6046805;23;20078;-73
2022/10/19 06:30:25;;;;;;;5.38;4.88;;;;;;;4.62;100.00;102170.19;6071206;23;20750;-75
2022/10/19 06:32:51;;;;;;;4.63;4.32;;;;;;;4.37;100.00;102123.50;6057780;23;20015;-76
2022/10/19 06:35:18;;;;;;;4.30;4.10;;;;;;;4.60;100.00;102158.94;6082303;23;20026;-74
2022/10/19 06:37:50;;;;;;;4.15;3.95;;;;;;;4.82;100.00;102182.28;6078372;23;20093;-75
2022/10/19 06:40:18;;;;;;;4.00;3.80;;;;;;;4.88;100.00;102198.69;6082190;23;20592;-73
2022/10/19 06:42:45;;;;;;;3.85;3.65;;;;;;;4.95;100.00;102186.53;6046098;23;20019;-74
2022/10/19 06:45:11;;;;;;;4.22;3.83;;;;;;;4.44;100.00;102074.09;6044845;23;20014;-73
2022/10/19 06:47:41;;;;;;;4.20;3.95;;;;;;;5.12;100.00;102169.09;6047174;23;20019;-74
2022/10/19 06:50:11;;;;;;;4.70;3.90;;;;;;;4.85;100.00;102107.69;6049403;23;20145;-72
2022/10/19 06:52:39;;;;;;;4.03;3.83;;;;;;;5.26;100.00;102168.16;6066181;23;20037;-70
2022/10/19 06:55:06;;;;;;;3.88;3.70;;;;;;;5.13;100.00;102137.00;6036849;23;20026;-72
2022/10/19 06:57:33;;;;;;;4.00;3.80;;;;;;;5.34;100.00;102155.94;6044956;23;20053;-74
2022/10/19 07:00:00;;;;;;;4.25;4.05;;;;;;;5.29;100.00;102127.34;6067330;23;20022;-71
2022/10/19 07:02:27;;;;;;;4.20;4.00;;;;;;;5.22;100.00;102096.19;6045875;23;20030;-73
2022/10/19 07:04:53;;;;;;;4.43;4.22;;;;;;;5.26;100.00;102080.50;6026865;23;20026;-75
2022/10/19 07:07:19;;;;;;;4.15;3.95;;;;;;;5.53;100.00;102113.28;6055761;23;20428;-73
2022/10/19 07:09:47;;;;;;;12.23;3.70;;;;;;;5.92;100.00;102160.69;6068011;23;20085;-71
2022/10/19 07:12:13;;;;;;;4.40;4.15;;;;;;;5.61;100.00;102097.56;6028975;23;20033;-70
2022/10/19 07:14:39;;;;;;;4.00;3.80;;;;;;;5.93;100.00;102144.19;6076261;23;20047;-74
2022/10/19 07:17:06;;;;;;;4.32;4.10;;;;;;;6.04;100.00;102140.63;6033000;23;20076;-71
2022/10/19 07:19:33;;;;;;;4.30;4.10;;;;;;;6.32;100.00;102167.28;6074973;23;20093;-71
2022/10/19 07:22:00;;;;;;;4.80;4.60;;;;;;;6.27;100.00;102138.63;6051452;23;20472;-71
2022/10/19 07:24:26;;;;;;;5.47;5.07;;;;;;;6.59;100.00;102160.88;6071047;23;20026;-74
2022/10/19 07:26:53;;;;;;;4.90;4.50;;;;;;;6.74;100.00;102162.44;6033275;23;20035;-74
2022/10/19 07:29:19;;;;;;;4.68;4.30;;;;;;;6.86;100.00;102156.19;6053507;23;20025;-72
2022/10/19 07:31:46;;;;;;;5.05;4.75;;;;;;;6.53;100.00;102080.09;6047536;23;20018;-71
2022/10/19 07:34:13;;;;;;;4.97;4.60;;;;;;;7.06;100.00;102153.31;6072883;23;20119;-74
2022/10/19 07:36:43;;;;;;;4.75;4.45;;;;;;;6.93;100.00;102124.75;6043838;23;20026;-75
2022/10/19 07:39:11;;;;;;;4.75;4.45;;;;;;;6.96;100.00;102111.69;6075641;23;20080;-73
2022/10/19 07:41:38;;;;;;;4.65;4.38;;;;;;;7.07;100.00;102103.69;6047823;23;20742;-74
2022/10/19 07:44:05;;;;;;;5.13;4.68;;;;;;;7.22;100.00;102115.66;6069097;23;20068;-74
2022/10/19 07:46:36;;;;;;;4.63;4.43;;;;;;;7.57;100.00;102161.22;6081539;23;20026;-74
2022/10/19 07:49:05;;;;;;;5.28;4.97;;;;;;;7.71;100.00;102163.63;6049020;23;20103;-74
2022/10/19 07:51:32;;;;;;;5.93;5.53;;;;;;;7.67;100.00;102141.06;6080850;23;20084;-75
2022/10/19 07:53:58;;;;;;;5.57;5.18;;;;;;;7.50;100.00;102103.00;6044700;23;20092;-73
2022/10/19 07:56:27;;;;;;;5.30;4.90;;;;;;;7.96;100.00;102164.09;6053520;23;20042;-75
2022/10/19 07:58:54;;;;;;;4.20;4.00;;;;;;;7.69;100.00;102110.53;6074744;23;20038;-74
2022/10/19 08:01:23;;;;;;;4.68;4.47;;;;;;;6.57;100.00;101920.94;6072368;23;20060;-76
2022/10/19 08:03:54;;;;;;;4.90;4.60;;;;;;;8.19;100.00;102151.44;6047918;23;20415;-76
2022/10/19 08:06:41;;;;;;;6.18;5.72;;;;;;;8.39;100.00;102153.66;6079943;23;20071;-75
2022/10/19 08:09:08;;;;;;;21.13;20.02;;;;;;;7.93;100.00;102055.19;6006896;23;20034;-73
2022/10/19 08:11:41;;;;;;;6.75;6.15;;;;;;;8.59;100.00;102147.22;5983111;23;20383;-73
2022/10/19 08:14:07;;;;;;;5.25;4.78;;;;;;;8.69;100.00;102145.25;6078594;23;20022;-74
2022/10/19 08:16:37;;;;;;;5.57;5.18;;;;;;;8.78;100.00;102145.94;6074229;23;20010;-74
2022/10/19 08:19:07;;;;;;;5.78;4.75;;;;;;;8.87;100.00;102146.63;6072079;23;20435;-74
2022/10/19 08:21:35;;;;;;;5.10;4.78;;;;;;;8.93;100.00;102152.59;6050164;23;20620;-74
2022/10/19 08:24:02;;;;;;;6.18;5.68;;;;;;;9.03;100.00;102145.38;6054459;23;20038;-75
2022/10/19 08:26:31;;;;;;;11.25;5.60;;;;;;;8.68;100.00;102067.63;6073252;23;20030;-74
2022/10/19 08:29:02;;;;;;;7.00;6.40;;;;;;;9.26;100.00;102141.38;6086753;23;20030;-74
2022/10/19 08:31:29;;;;;;;5.85;5.55;;;;;;;9.24;100.00;102137.94;6051492;23;20026;-72
2022/10/19 08:33:55;;;;;;;6.32;5.82;;;;;;;9.35;100.00;102144.63;6044620;23;20107;-75
2022/10/19 08:36:22;;;;;;;6.30;5.80;;;;;;;9.44;100.00;102127.84;6061150;23;20419;-75
2022/10/19 08:38:49;;;;;;;6.72;5.38;;;;;;;9.61;100.00;102135.28;6086444;23;20063;-75
2022/10/19 08:41:50;;;;;;;6.13;5.55;;;;;;;9.70;100.00;102128.94;6068369;23;20021;-74
2022/10/19 08:44:48;;;;;;;7.40;6.68;;;;;;;9.77;100.00;102128.75;6078240;23;20068;-75
2022/10/19 08:47:21;;;;;;;6.05;5.65;;;;;;;9.85;100.00;102120.69;6049555;23;20046;-73
2022/10/19 08:49:49;;;;;;;6.55;5.95;;;;;;;9.64;100.00;102080.19;6072446;23;20034;-75
2022/10/19 08:52:23;;;;;;;6.47;5.90;;;;;;;9.67;100.00;102058.25;6066894;23;20611;-75
2022/10/19 08:54:55;;;;;;;6.68;6.22;;;;;;;10.19;100.00;102136.38;6083085;23;20021;-72
2022/10/19 08:57:29;;;;;;;6.50;5.95;;;;;;;9.88;100.00;102081.28;6072541;23;20046;-75
2022/10/19 09:00:05;;;;;;;7.07;6.53;;;;;;;10.17;100.00;102129.47;6046972;23;20022;-74
2022/10/19 09:03:10;;;;;;;5.70;5.22;;;;;;;10.45;100.00;102140.06;6073641;23;20080;-74
2022/10/19 09:05:49;;;;;;;5.95;5.55;;;;;;;10.11;100.00;102091.13;6044904;23;20088;-74
2022/10/19 09:08:17;;;;;;;6.40;5.80;;;;;;;10.55;100.00;102159.91;6053482;23;20019;-73
2022/10/19 09:10:47;;;;;;;7.45;6.03;;;;;;;10.65;100.00;102151.78;6075807;23;20053;-74
2022/10/19 09:13:38;;;;;;;6.30;5.80;;;;;;;10.78;100.00;102142.59;6051393;23;20084;-75
2022/10/19 09:16:19;;;;;;;6.32;5.72;;;;;;;10.93;100.00;102152.66;6066748;23;20022;-74
2022/10/19 09:18:46;;;;;;;6.90;6.22;;;;;;;10.88;100.00;102151.06;6076666;23;20026;-74
2022/10/19 09:21:31;;;;;;;8.23;5.80;;;;;;;11.08;100.00;102145.22;6047926;23;20053;-75
2022/10/19 09:24:40;;;;;;;6.55;5.95;;;;;;;11.25;100.00;102147.31;6058663;23;20629;-75
2022/10/19 09:27:18;;;;;;;12.05;6.07;;;;;;;11.29;100.00;102133.19;6057032;23;20182;-74
2022/10/19 09:30:09;;;;;;;10.05;5.97;;;;;;;11.57;100.00;102141.03;6078795;23;20014;-74
2022/10/19 09:32:37;;;;;;;6.43;5.82;;;;;;;11.72;100.00;102139.63;6073966;23;20030;-74
2022/10/19 09:35:16;;;;;;;7.57;6.18;;;;;;;11.80;100.00;102132.34;6022873;23;20026;-73
2022/10/19 09:37:47;;;;;;;14.10;6.05;;;;;;;11.36;100.00;102082.13;6079786;23;20046;-74
2022/10/19 09:40:18;;;;;;;7.05;6.50;;;;;;;11.47;100.00;102066.00;6056600;23;20538;-74
2022/10/19 09:42:45;;;;;;;6.43;5.63;;;;;;;12.03;100.00;102155.28;6068449;23;20760;-75
2022/10/19 09:45:18;;;;;;;8.32;6.35;;;;;;;11.77;100.00;102049.16;6064654;23;20014;-75
2022/10/19 09:47:47;;;;;;;6.05;5.57;;;;;;;12.13;100.00;102090.00;6053196;23;20766;-74
2022/10/19 09:50:15;;;;;;;6.40;5.85;;;;;;;12.28;100.00;102131.53;6069348;23;20018;-74
2022/10/19 09:52:44;;;;;;;7.95;5.72;;;;;;;12.13;100.00;102080.34;6054311;23;20018;-74
2022/10/19 09:55:13;;;;;;;6.25;5.72;;;;;;;12.58;100.00;102132.19;6061240;23;20029;-76
2022/10/19 09:57:44;;;;;;;5.90;5.50;;;;;;;12.33;100.00;102073.50;6055416;23;20014;-73
2022/10/19 10:00:30;;;;;;;14.55;6.43;;;;;;;12.69;100.00;102108.09;6073034;23;20529;-73
2022/10/19 10:02:56;;;;;;;6.50;6.00;;;;;;;13.03;100.00;102132.25;6049361;23;20541;-73
2022/10/19 10:05:32;;;;;;;7.13;6.07;;;;;;;13.26;100.00;102131.34;6051791;23;20569;-73
2022/10/19 10:07:58;;;;;;;12.00;5.60;;;;;;;13.15;100.00;102106.28;6065563;23;20034;-73
2022/10/19 10:10:36;;;;;;;6.85;6.28;;;;;;;12.93;100.00;102058.84;6047004;23;20026;-74
2022/10/19 10:13:04;;;;;;;6.63;6.05;;;;;;;13.35;100.00;102100.22;6071435;23;20033;-75
2022/10/19 10:15:47;;;;;;;6.88;5.95;;;;;;;13.55;100.00;102104.66;6078092;23;20056;-73
2022/10/19 10:18:16;;;;;;;9.32;7.00;;;;;;;13.62;100.00;102107.03;6073849;23;20143;-74
2022/10/19 10:21:08;;;;;;;11.07;6.07;;;;;;;13.04;100.00;101973.22;6076390;23;20018;-75
2022/10/19 10:23:38;;;;;;;7.00;6.25;;;;;;;13.99;100.00;102111.56;6074275;23;20051;-74
2022/10/19 10:26:16;;;;;;;7.85;7.18;;;;;;;13.84;100.00;102105.19;6071060;23;21695;-75
2022/10/19 10:28:48;;;;;;;9.25;7.45;;;;;;;14.00;100.00;102105.38;6077389;23;20574;-73
2022/10/19 10:31:21;;;;;;;9.30;5.80;;;;;;;13.77;100.00;102065.03;6053372;23;20022;-76
2022/10/19 10:34:00;;;;;;;6.72;6.22;;;;;;;13.91;100.00;102061.78;6076947;23;20068;-76
2022/10/19 10:36:52;;;;;;;7.32;6.63;;;;;;;14.04;100.00;102032.19;6077240;23;20073;-73
2022/10/19 10:39:19;;;;;;;10.10;5.97;;;;;;;14.56;100.00;102095.84;6055168;23;20657;-73
2022/10/19 10:41:47;;;;;;;11.52;6.78;;;;;;;14.50;98.73;102096.94;6079604;23;20047;-75
2022/10/19 10:44:25;;;;;;;7.53;6.82;;;;;;;14.30;95.94;102036.28;6050273;23;20015;-74
2022/10/19 10:46:55;;;;;;;8.25;6.10;;;;;;;14.60;97.50;102067.50;6084701;23;20458;-74
2022/10/19 10:49:26;;;;;;;7.43;6.65;;;;;;;14.81;96.82;102076.19;6048141;23;20440;-73
2022/10/19 10:51:56;;;;;;;7.78;5.93;;;;;;;14.99;97.00;102077.94;6078613;23;20087;-73
2022/10/19 10:54:30;;;;;;;6.03;5.65;;;;;;;15.01;92.66;102072.56;6052088;23;20527;-74
2022/10/19 10:57:19;;;;;;;7.07;6.35;;;;;;;14.59;92.08;101997.94;6057465;23;20045;-74
2022/10/19 11:00:06;;;;;;;5.75;5.45;;;;;;;15.12;90.76;102068.47;6045681;23;20019;-76
2022/10/19 11:02:45;;;;;;;5.72;5.43;;;;;;;14.95;89.16;102069.31;6029801;23;20092;-72
2022/10/19 11:05:32;;;;;;;10.35;5.45;;;;;;;15.24;90.68;102059.09;6075579;23;20018;-73
2022/10/19 11:08:04;;;;;;;5.57;5.28;;;;;;;15.13;89.50;102048.16;6045739;23;20019;-74
2022/10/19 11:10:35;;;;;;;6.35;5.75;;;;;;;15.12;88.56;102042.03;6085083;23;20518;-74
2022/10/19 11:13:15;;;;;;;6.45;5.13;;;;;;;15.36;87.85;102036.44;6083904;23;20095;-74
2022/10/19 11:15:52;;;;;;;5.90;5.40;;;;;;;14.84;87.05;101984.41;6073792;23;20056;-74
2022/10/19 11:18:35;;;;;;;6.53;5.72;;;;;;;15.42;87.96;102033.50;6051506;23;20025;-74
2022/10/19 11:21:30;;;;;;;6.80;6.00;;;;;;;15.32;86.89;102026.97;6069081;23;20018;-73
2022/10/19 11:24:33;;;;;;;7.13;5.15;;;;;;;15.33;85.25;102020.72;6077348;23;20033;-74
2022/10/19 11:27:00;;;;;;;;;;;;;;;15.48;86.75;102027.03;6054386;23;20026;-73
2022/10/19 11:29:54;;;;;;;8.23;5.03;;;;;;;15.40;85.30;101982.44;6076000;23;20518;-74
2022/10/19 11:32:48;;;;;;;6.40;6.00;;;;;;;15.45;85.17;102004.22;6079693;23;20022;-73
2022/10/19 11:35:30;;;;;;;7.15;6.57;;;;;;;15.36;86.27;102013.50;6049680;23;20530;-73
2022/10/19 11:38:44;;;;;;;6.40;5.47;;;;;;;15.35;86.40;102009.16;6079511;23;20545;-74
2022/10/19 11:41:13;;;;;;;5.70;5.30;;;;;;;15.33;85.41;102008.38;6027978;23;20027;-74
2022/10/19 11:43:49;;;;;;;6.60;6.00;;;;;;;15.58;84.70;101999.16;6053296;23;20018;-73
2022/10/19 11:46:29;;;;;;;5.70;5.30;;;;;;;15.14;84.49;101997.00;6083651;23;20030;-74